sensor_id;sensor_type;location;lat;lon;timestamp;pressure;altitude;pressure_sealevel;temperature;humidity
5574;BME280;2563;52.242;7.956;2023-02-10T00:01:38;102328.91;;;2.80;100.00
5574;BME280;2563;52.242;7.956;2023-02-10T00:04:03;102341.69;;;2.82;100.00
5574;BME280;2563;52.242;7.956;2023-02-10T00:06:29;102328.22;;;2.84;100.00
5574;BME280;2563;52.242;7.956;2023-02-10T00:08:59;102340.06;;;2.84;100.00
5574;BME280;2563;52.242;7.956;2023-02-10T00:11:26;102334.16;;;2.85;100.00
5574;BME280;2563;52.242;7.956;2023-02-10T00:14:12;102350.41;;;2.88;100.00
5574;BME280;2563;52.242;7.956;2023-02-10T00:16:38;102354.56;;;2.86;100.00
5574;BME280;2563;52.242;7.956;2023-02-10T00:19:03;102360.47;;;2.85;100.00
5574;BME280;2563;52.242;7.956;2023-02-10T00:21:29;102372.31;;;2.85;100.00
5574;BME280;2563;52.242;7.956;2023-02-10T00:23:54;102375.78;;;2.87;100.00
5574;BME280;2563;52.242;7.956;2023-02-10T00:26:20;102407.16;;;2.87;100.00
5574;BME280;2563;52.242;7.956;2023-02-10T00:28:45;102402.81;;;2.85;100.00
5574;BME280;2563;52.242;7.956;2023-02-10T00:31:13;102423.91;;;2.82;100.00
5574;BME280;2563;52.242;7.956;2023-02-10T00:33:39;102417.13;;;2.81;100.00
5574;BME280;2563;52.242;7.956;2023-02-10T00:36:09;102411.28;;;2.84;100.00
5574;BME280;2563;52.242;7.956;2023-02-10T00:38:35;102404.69;;;2.89;100.00
5574;BME280;2563;52.242;7.956;2023-02-10T00:41:02;102431.72;;;2.87;100.00
5574;BME280;2563;52.242;7.956;2023-02-10T00:43:28;102420.69;;;2.86;100.00
5574;BME280;2563;52.242;7.956;2023-02-10T00:45:53;102431.50;;;2.81;100.00
5574;BME280;2563;52.242;7.956;2023-02-10T00:48:19;102436.34;;;2.74;100.00
5574;BME280;2563;52.242;7.956;2023-02-10T00:50:44;102444.66;;;2.70;100.00
5574;BME280;2563;52.242;7.956;2023-02-10T00:53:09;102434.28;;;2.64;100.00
5574;BME280;2563;52.242;7.956;2023-02-10T00:55:35;102451.03;;;2.59;100.00
5574;BME280;2563;52.242;7.956;2023-02-10T00:58:00;102473.09;;;2.60;100.00
5574;BME280;2563;52.242;7.956;2023-02-10T01:00:25;102495.97;;;2.60;100.00
5574;BME280;2563;52.242;7.956;2023-02-10T01:02:51;102500.25;;;2.61;100.00
5574;BME280;2563;52.242;7.956;2023-02-10T01:05:16;102500.13;;;2.58;100.00
5574;BME280;2563;52.242;7.956;2023-02-10T01:07:41;102501.88;;;2.59;100.00
5574;BME280;2563;52.242;7.956;2023-02-10T01:10:07;102522.06;;;2.56;100.00
5574;BME280;2563;52.242;7.956;2023-02-10T01:12:32;102527.84;;;2.52;100.00
5574;BME280;2563;52.242;7.956;2023-02-10T01:14:58;102522.38;;;2.43;100.00
5574;BME280;2563;52.242;7.956;2023-02-10T01:17:23;102561.06;;;2.36;100.00
5574;BME280;2563;52.242;7.956;2023-02-10T01:19:49;102548.81;;;2.27;100.00
5574;BME280;2563;52.242;7.956;2023-02-10T01:22:16;102548.31;;;2.15;100.00
5574;BME280;2563;52.242;7.956;2023-02-10T01:24:41;102531.91;;;2.08;100.00
5574;BME280;2563;52.242;7.956;2023-02-10T01:27:06;102528.31;;;2.03;100.00
5574;BME280;2563;52.242;7.956;2023-02-10T01:29:32;102525.53;;;1.97;100.00
5574;BME280;2563;52.242;7.956;2023-02-10T01:31:57;102503.25;;;1.91;100.00
5574;BME280;2563;52.242;7.956;2023-02-10T01:34:22;102487.78;;;1.85;100.00
5574;BME280;2563;52.242;7.956;2023-02-10T01:36:48;102480.09;;;1.83;100.00
5574;BME280;2563;52.242;7.956;2023-02-10T01:39:13;102464.66;;;1.79;100.00
5574;BME280;2563;52.242;7.956;2023-02-10T01:41:40;102445.63;;;1.69;100.00
5574;BME280;2563;52.242;7.956;2023-02-10T01:45:06;102435.34;;;1.66;100.00
5574;BME280;2563;52.242;7.956;2023-02-10T01:46:53;102429.25;;;1.62;100.00
5574;BME280;2563;52.242;7.956;2023-02-10T01:49:23;102428.16;;;1.56;100.00
5574;BME280;2563;52.242;7.956;2023-02-10T01:54:27;102439.63;;;1.47;100.00
5574;BME280;2563;52.242;7.956;2023-02-10T01:56:55;102441.22;;;1.45;100.00
5574;BME280;2563;52.242;7.956;2023-02-10T01:59:22;102444.56;;;1.44;100.00
5574;BME280;2563;52.242;7.956;2023-02-10T02:01:50;102461.84;;;1.53;100.00
5574;BME280;2563;52.242;7.956;2023-02-10T02:04:16;102451.91;;;1.58;100.00
5574;BME280;2563;52.242;7.956;2023-02-10T02:06:42;102425.25;;;1.48;100.00
5574;BME280;2563;52.242;7.956;2023-02-10T02:09:08;102431.88;;;1.44;100.00
5574;BME280;2563;52.242;7.956;2023-02-10T02:14:30;102438.56;;;1.62;100.00
5574;BME280;2563;52.242;7.956;2023-02-10T02:17:24;102491.06;;;1.63;100.00
5574;BME280;2563;52.242;7.956;2023-02-10T02:28:25;102434.09;;;1.56;100.00
5574;BME280;2563;52.242;7.956;2023-02-10T02:33:47;102415.47;;;1.56;100.00
5574;BME280;2563;52.242;7.956;2023-02-10T02:36:34;102403.38;;;1.50;100.00
5574;BME280;2563;52.242;7.956;2023-02-10T02:39:04;102378.53;;;1.43;100.00
5574;BME280;2563;52.242;7.956;2023-02-10T02:41:31;102365.69;;;1.59;100.00
5574;BME280;2563;52.242;7.956;2023-02-10T02:43:57;102351.13;;;1.55;100.00
5574;BME280;2563;52.242;7.956;2023-02-10T02:49:26;102294.56;;;1.58;100.00
5574;BME280;2563;52.242;7.956;2023-02-10T02:52:02;102302.69;;;1.49;100.00
5574;BME280;2563;52.242;7.956;2023-02-10T02:54:34;102286.72;;;1.52;100.00
5574;BME280;2563;52.242;7.956;2023-02-10T02:57:23;102291.13;;;1.56;100.00
5574;BME280;2563;52.242;7.956;2023-02-10T03:02:20;102301.06;;;1.51;100.00
5574;BME280;2563;52.242;7.956;2023-02-10T03:04:46;102303.97;;;1.39;100.00
5574;BME280;2563;52.242;7.956;2023-02-10T03:07:13;102312.25;;;1.35;100.00
5574;BME280;2563;52.242;7.956;2023-02-10T03:09:39;102321.66;;;1.38;100.00
5574;BME280;2563;52.242;7.956;2023-02-10T03:12:05;102315.72;;;1.37;100.00
5574;BME280;2563;52.242;7.956;2023-02-10T03:14:31;102321.66;;;1.38;100.00
5574;BME280;2563;52.242;7.956;2023-02-10T03:16:56;102329.19;;;1.36;100.00
5574;BME280;2563;52.242;7.956;2023-02-10T03:19:22;102322.31;;;1.34;100.00
5574;BME280;2563;52.242;7.956;2023-02-10T03:21:47;102295.03;;;1.28;100.00
5574;BME280;2563;52.242;7.956;2023-02-10T03:24:13;102292.41;;;1.26;100.00
5574;BME280;2563;52.242;7.956;2023-02-10T03:26:39;102299.34;;;1.31;100.00
5574;BME280;2563;52.242;7.956;2023-02-10T03:29:05;102308.84;;;1.35;100.00
5574;BME280;2563;52.242;7.956;2023-02-10T03:31:31;102313.22;;;1.39;100.00
5574;BME280;2563;52.242;7.956;2023-02-10T03:33:57;102308.78;;;1.33;100.00
5574;BME280;2563;52.242;7.956;2023-02-10T03:36:22;102321.44;;;1.33;100.00
5574;BME280;2563;52.242;7.956;2023-02-10T03:38:48;102336.44;;;1.27;100.00
5574;BME280;2563;52.242;7.956;2023-02-10T03:41:14;102305.38;;;1.33;100.00
5574;BME280;2563;52.242;7.956;2023-02-10T03:43:40;102336.69;;;1.33;100.00
5574;BME280;2563;52.242;7.956;2023-02-10T03:46:07;102338.06;;;1.26;100.00
5574;BME280;2563;52.242;7.956;2023-02-10T03:48:34;102368.66;;;1.30;100.00
5574;BME280;2563;52.242;7.956;2023-02-10T03:51:00;102367.00;;;1.30;100.00
5574;BME280;2563;52.242;7.956;2023-02-10T03:53:27;102361.09;;;1.31;100.00
5574;BME280;2563;52.242;7.956;2023-02-10T03:55:53;102360.38;;;1.34;100.00
5574;BME280;2563;52.242;7.956;2023-02-10T03:58:18;102379.38;;;1.43;100.00
5574;BME280;2563;52.242;7.956;2023-02-10T04:00:43;102365.44;;;1.34;100.00
5574;BME280;2563;52.242;7.956;2023-02-10T04:03:09;102390.06;;;1.36;100.00
5574;BME280;2563;52.242;7.956;2023-02-10T04:05:34;102401.13;;;1.37;100.00
5574;BME280;2563;52.242;7.956;2023-02-10T04:08:00;102383.88;;;1.30;100.00
5574;BME280;2563;52.242;7.956;2023-02-10T04:10:26;102401.56;;;1.28;100.00
5574;BME280;2563;52.242;7.956;2023-02-10T04:12:51;102401.56;;;1.28;100.00
5574;BME280;2563;52.242;7.956;2023-02-10T04:15:17;102401.56;;;1.28;100.00
5574;BME280;2563;52.242;7.956;2023-02-10T04:17:42;102395.88;;;1.34;100.00
5574;BME280;2563;52.242;7.956;2023-02-10T04:20:08;102417.31;;;1.40;100.00
5574;BME280;2563;52.242;7.956;2023-02-10T04:22:34;102422.28;;;1.37;100.00
5574;BME280;2563;52.242;7.956;2023-02-10T04:24:59;102425.38;;;1.32;100.00
5574;BME280;2563;52.242;7.956;2023-02-10T04:27:24;102394.25;;;1.34;100.00
5574;BME280;2563;52.242;7.956;2023-02-10T04:29:50;102389.22;;;1.36;100.00
5574;BME280;2563;52.242;7.956;2023-02-10T04:32:15;102423.66;;;1.31;100.00
5574;BME280;2563;52.242;7.956;2023-02-10T04:34:40;102397.22;;;1.25;100.00
5574;BME280;2563;52.242;7.956;2023-02-10T04:37:06;102400.44;;;1.21;100.00
5574;BME280;2563;52.242;7.956;2023-02-10T04:39:31;102479.00;;;1.20;100.00
5574;BME280;2563;52.242;7.956;2023-02-10T04:41:57;102440.28;;;1.24;100.00
5574;BME280;2563;52.242;7.956;2023-02-10T04:44:22;102430.28;;;1.27;100.00
5574;BME280;2563;52.242;7.956;2023-02-10T04:46:47;102413.31;;;1.26;100.00
5574;BME280;2563;52.242;7.956;2023-02-10T04:49:15;102375.25;;;1.26;100.00
5574;BME280;2563;52.242;7.956;2023-02-10T04:51:40;102369.41;;;1.27;100.00
5574;BME280;2563;52.242;7.956;2023-02-10T04:54:06;102391.16;;;1.22;100.00
5574;BME280;2563;52.242;7.956;2023-02-10T04:56:31;102384.34;;;1.21;100.00
5574;BME280;2563;52.242;7.956;2023-02-10T04:58:56;102338.69;;;1.21;100.00
5574;BME280;2563;52.242;7.956;2023-02-10T05:01:22;102352.91;;;1.17;100.00
5574;BME280;2563;52.242;7.956;2023-02-10T05:03:47;102345.25;;;1.16;100.00
5574;BME280;2563;52.242;7.956;2023-02-10T05:06:14;102329.91;;;1.13;100.00
5574;BME280;2563;52.242;7.956;2023-02-10T05:08:39;102335.75;;;1.12;100.00
5574;BME280;2563;52.242;7.956;2023-02-10T05:11:10;102339.09;;;1.11;100.00
5574;BME280;2563;52.242;7.956;2023-02-10T05:13:37;102327.09;;;1.06;100.00
5574;BME280;2563;52.242;7.956;2023-02-10T05:16:03;102331.88;;;1.00;100.00
5574;BME280;2563;52.242;7.956;2023-02-10T05:18:29;102332.06;;;1.05;100.00
5574;BME280;2563;52.242;7.956;2023-02-10T05:20:56;102321.81;;;1.02;100.00
5574;BME280;2563;52.242;7.956;2023-02-10T05:23:21;102326.03;;;1.01;100.00
5574;BME280;2563;52.242;7.956;2023-02-10T05:25:47;102335.50;;;1.05;100.00
5574;BME280;2563;52.242;7.956;2023-02-10T05:28:12;102331.34;;;1.08;100.00
5574;BME280;2563;52.242;7.956;2023-02-10T05:30:38;102324.66;;;1.10;100.00
5574;BME280;2563;52.242;7.956;2023-02-10T05:33:03;102331.63;;;1.14;100.00
5574;BME280;2563;52.242;7.956;2023-02-10T05:35:28;102327.59;;;1.19;100.00
5574;BME280;2563;52.242;7.956;2023-02-10T05:37:53;102316.69;;;1.20;100.00
5574;BME280;2563;52.242;7.956;2023-02-10T05:40:19;102317.34;;;1.16;100.00
5574;BME280;2563;52.242;7.956;2023-02-10T05:42:44;102312.94;;;1.12;100.00
5574;BME280;2563;52.242;7.956;2023-02-10T05:45:10;102304.53;;;1.13;100.00
5574;BME280;2563;52.242;7.956;2023-02-10T05:47:35;102299.47;;;1.13;100.00
5574;BME280;2563;52.242;7.956;2023-02-10T05:50:00;102303.59;;;1.11;100.00
5574;BME280;2563;52.242;7.956;2023-02-10T05:52:26;102287.66;;;1.13;100.00
5574;BME280;2563;52.242;7.956;2023-02-10T05:54:51;102286.84;;;1.14;100.00
5574;BME280;2563;52.242;7.956;2023-02-10T05:57:16;102282.50;;;1.12;100.00
5574;BME280;2563;52.242;7.956;2023-02-10T05:59:42;102265.28;;;1.04;100.00
5574;BME280;2563;52.242;7.956;2023-02-10T06:02:07;102271.09;;;1.02;100.00
5574;BME280;2563;52.242;7.956;2023-02-10T06:04:33;102243.22;;;1.02;100.00
5574;BME280;2563;52.242;7.956;2023-02-10T06:06:58;102251.47;;;0.98;100.00
5574;BME280;2563;52.242;7.956;2023-02-10T06:09:24;102261.28;;;0.90;100.00
5574;BME280;2563;52.242;7.956;2023-02-10T06:11:51;102256.34;;;0.93;100.00
5574;BME280;2563;52.242;7.956;2023-02-10T06:14:17;102271.56;;;0.93;100.00
5574;BME280;2563;52.242;7.956;2023-02-10T06:16:42;102263.06;;;0.91;100.00
5574;BME280;2563;52.242;7.956;2023-02-10T06:19:07;102283.06;;;0.85;100.00
5574;BME280;2563;52.242;7.956;2023-02-10T06:21:33;102282.09;;;0.83;100.00
5574;BME280;2563;52.242;7.956;2023-02-10T06:23:58;102290.72;;;0.87;100.00
5574;BME280;2563;52.242;7.956;2023-02-10T06:26:23;102288.97;;;0.85;100.00
5574;BME280;2563;52.242;7.956;2023-02-10T06:28:49;102293.78;;;0.79;100.00
5574;BME280;2563;52.242;7.956;2023-02-10T06:31:14;102296.25;;;0.78;100.00
5574;BME280;2563;52.242;7.956;2023-02-10T06:33:40;102300.38;;;0.76;100.00
5574;BME280;2563;52.242;7.956;2023-02-10T06:36:06;102308.00;;;0.76;100.00
5574;BME280;2563;52.242;7.956;2023-02-10T06:38:33;102305.41;;;0.74;100.00
5574;BME280;2563;52.242;7.956;2023-02-10T06:40:59;102286.78;;;0.74;100.00
5574;BME280;2563;52.242;7.956;2023-02-10T06:43:24;102285.25;;;0.77;100.00
5574;BME280;2563;52.242;7.956;2023-02-10T06:45:50;102285.38;;;0.80;100.00
5574;BME280;2563;52.242;7.956;2023-02-10T06:48:15;102275.16;;;0.79;100.00
5574;BME280;2563;52.242;7.956;2023-02-10T06:50:40;102263.31;;;0.78;100.00
5574;BME280;2563;52.242;7.956;2023-02-10T06:53:06;102262.50;;;0.79;100.00
5574;BME280;2563;52.242;7.956;2023-02-10T06:55:31;102260.09;;;0.82;100.00
5574;BME280;2563;52.242;7.956;2023-02-10T06:58:00;102255.97;;;0.84;100.00
5574;BME280;2563;52.242;7.956;2023-02-10T07:00:26;102245.97;;;0.87;100.00
5574;BME280;2563;52.242;7.956;2023-02-10T07:02:52;102249.44;;;0.89;100.00
5574;BME280;2563;52.242;7.956;2023-02-10T07:05:17;102247.75;;;0.90;100.00
5574;BME280;2563;52.242;7.956;2023-02-10T07:07:43;102241.88;;;0.91;100.00
5574;BME280;2563;52.242;7.956;2023-02-10T07:10:08;102246.22;;;0.93;100.00
5574;BME280;2563;52.242;7.956;2023-02-10T07:12:34;102243.00;;;0.97;100.00
5574;BME280;2563;52.242;7.956;2023-02-10T07:14:59;102245.63;;;0.99;100.00
5574;BME280;2563;52.242;7.956;2023-02-10T07:17:25;102234.84;;;1.04;100.00
5574;BME280;2563;52.242;7.956;2023-02-10T07:19:50;102240.06;;;1.08;100.00
5574;BME280;2563;52.242;7.956;2023-02-10T07:22:16;102252.00;;;1.10;100.00
5574;BME280;2563;52.242;7.956;2023-02-10T07:24:41;102251.41;;;1.16;100.00
5574;BME280;2563;52.242;7.956;2023-02-10T07:27:07;102227.94;;;1.21;100.00
5574;BME280;2563;52.242;7.956;2023-02-10T07:29:32;102222.22;;;1.25;100.00
5574;BME280;2563;52.242;7.956;2023-02-10T07:31:57;102217.31;;;1.30;100.00
5574;BME280;2563;52.242;7.956;2023-02-10T07:34:24;102213.19;;;1.32;100.00
5574;BME280;2563;52.242;7.956;2023-02-10T07:36:50;102207.41;;;1.36;100.00
5574;BME280;2563;52.242;7.956;2023-02-10T07:39:20;102209.28;;;1.40;100.00
5574;BME280;2563;52.242;7.956;2023-02-10T07:41:45;102212.75;;;1.42;100.00
5574;BME280;2563;52.242;7.956;2023-02-10T07:44:11;102214.53;;;1.45;100.00
5574;BME280;2563;52.242;7.956;2023-02-10T07:46:36;102208.72;;;1.47;100.00
5574;BME280;2563;52.242;7.956;2023-02-10T07:49:01;102199.50;;;1.49;100.00
5574;BME280;2563;52.242;7.956;2023-02-10T07:51:27;102187.00;;;1.54;100.00
5574;BME280;2563;52.242;7.956;2023-02-10T07:53:52;102181.16;;;1.57;100.00
5574;BME280;2563;52.242;7.956;2023-02-10T07:56:17;102150.03;;;1.61;100.00
5574;BME280;2563;52.242;7.956;2023-02-10T07:58:43;102147.59;;;1.64;100.00
5574;BME280;2563;52.242;7.956;2023-02-10T08:01:10;102146.94;;;1.68;100.00
5574;BME280;2563;52.242;7.956;2023-02-10T08:03:36;102136.88;;;1.71;100.00
5574;BME280;2563;52.242;7.956;2023-02-10T08:06:02;102135.31;;;1.75;100.00
5574;BME280;2563;52.242;7.956;2023-02-10T08:08:28;102132.00;;;1.77;100.00
5574;BME280;2563;52.242;7.956;2023-02-10T08:10:53;102127.00;;;1.79;100.00
5574;BME280;2563;52.242;7.956;2023-02-10T08:13:20;102124.53;;;1.80;100.00
5574;BME280;2563;52.242;7.956;2023-02-10T08:15:45;102125.47;;;1.82;100.00
5574;BME280;2563;52.242;7.956;2023-02-10T08:18:10;102111.25;;;1.87;100.00
5574;BME280;2563;52.242;7.956;2023-02-10T08:20:36;102105.44;;;1.90;100.00
5574;BME280;2563;52.242;7.956;2023-02-10T08:23:02;102104.56;;;1.89;100.00
5574;BME280;2563;52.242;7.956;2023-02-10T08:25:27;102107.09;;;1.89;100.00
5574;BME280;2563;52.242;7.956;2023-02-10T08:27:53;102099.59;;;1.92;100.00
5574;BME280;2563;52.242;7.956;2023-02-10T08:30:18;102101.31;;;1.94;100.00
5574;BME280;2563;52.242;7.956;2023-02-10T08:32:43;102097.13;;;1.94;100.00
5574;BME280;2563;52.242;7.956;2023-02-10T08:35:09;102084.88;;;2.08;100.00
5574;BME280;2563;52.242;7.956;2023-02-10T08:37:35;102112.25;;;2.15;100.00
5574;BME280;2563;52.242;7.956;2023-02-10T08:40:01;102102.56;;;2.29;100.00
5574;BME280;2563;52.242;7.956;2023-02-10T08:42:27;102094.72;;;2.47;100.00
5574;BME280;2563;52.242;7.956;2023-02-10T08:44:53;102080.38;;;2.49;100.00
5574;BME280;2563;52.242;7.956;2023-02-10T08:47:18;102077.44;;;2.62;100.00
5574;BME280;2563;52.242;7.956;2023-02-10T08:49:43;102053.25;;;2.73;100.00
5574;BME280;2563;52.242;7.956;2023-02-10T08:52:09;102045.75;;;2.78;100.00
5574;BME280;2563;52.242;7.956;2023-02-10T08:54:35;102048.84;;;2.69;100.00
5574;BME280;2563;52.242;7.956;2023-02-10T08:57:01;102020.72;;;2.90;100.00
5574;BME280;2563;52.242;7.956;2023-02-10T08:59:26;101994.31;;;2.87;100.00
5574;BME280;2563;52.242;7.956;2023-02-10T09:01:51;101988.41;;;2.88;100.00
5574;BME280;2563;52.242;7.956;2023-02-10T09:04:17;101974.31;;;2.99;100.00
5574;BME280;2563;52.242;7.956;2023-02-10T09:06:43;101949.00;;;3.02;100.00
5574;BME280;2563;52.242;7.956;2023-02-10T09:09:10;101950.72;;;3.03;100.00
5574;BME280;2563;52.242;7.956;2023-02-10T09:11:36;101939.00;;;3.08;100.00
5574;BME280;2563;52.242;7.956;2023-02-10T09:14:02;101936.38;;;3.05;100.00
5574;BME280;2563;52.242;7.956;2023-02-10T09:16:28;101918.13;;;3.20;100.00
5574;BME280;2563;52.242;7.956;2023-02-10T09:18:53;101905.09;;;3.39;100.00
5574;BME280;2563;52.242;7.956;2023-02-10T09:21:19;101890.59;;;3.37;100.00
5574;BME280;2563;52.242;7.956;2023-02-10T09:23:44;101889.13;;;3.45;100.00
5574;BME280;2563;52.242;7.956;2023-02-10T09:26:10;101885.03;;;3.50;100.00
5574;BME280;2563;52.242;7.956;2023-02-10T09:28:36;101871.81;;;3.65;100.00
5574;BME280;2563;52.242;7.956;2023-02-10T09:31:06;101876.69;;;3.56;100.00
5574;BME280;2563;52.242;7.956;2023-02-10T09:33:32;101880.19;;;3.59;100.00
5574;BME280;2563;52.242;7.956;2023-02-10T09:35:57;101881.00;;;3.58;100.00
5574;BME280;2563;52.242;7.956;2023-02-10T09:38:23;101873.94;;;3.48;100.00
5574;BME280;2563;52.242;7.956;2023-02-10T09:49:24;101845.78;;;4.50;100.00
5574;BME280;2563;52.242;7.956;2023-02-10T09:54:17;101898.56;;;3.81;100.00
5574;BME280;2563;52.242;7.956;2023-02-10T09:56:44;101901.59;;;4.01;100.00
5574;BME280;2563;52.242;7.956;2023-02-10T09:59:16;101909.97;;;3.97;100.00
5574;BME280;2563;52.242;7.956;2023-02-10T10:01:47;101920.47;;;4.09;100.00
5574;BME280;2563;52.242;7.956;2023-02-10T10:04:17;101944.00;;;3.99;100.00
5574;BME280;2563;52.242;7.956;2023-02-10T10:06:49;101971.59;;;3.82;100.00
5574;BME280;2563;52.242;7.956;2023-02-10T10:09:30;101994.81;;;3.62;100.00
5574;BME280;2563;52.242;7.956;2023-02-10T10:11:58;102005.28;;;3.72;100.00
5574;BME280;2563;52.242;7.956;2023-02-10T10:14:33;102022.25;;;3.73;100.00
5574;BME280;2563;52.242;7.956;2023-02-10T10:27:47;102064.56;;;4.64;100.00
5574;BME280;2563;52.242;7.956;2023-02-10T10:30:20;102010.44;;;5.14;100.00
5574;BME280;2563;52.242;7.956;2023-02-10T10:32:58;102018.47;;;5.31;100.00
5574;BME280;2563;52.242;7.956;2023-02-10T10:35:30;102034.75;;;5.36;100.00
5574;BME280;2563;52.242;7.956;2023-02-10T10:37:58;102078.94;;;5.33;100.00
5574;BME280;2563;52.242;7.956;2023-02-10T10:40:27;102114.56;;;5.27;100.00
5574;BME280;2563;52.242;7.956;2023-02-10T10:42:57;102120.16;;;5.49;100.00
5574;BME280;2563;52.242;7.956;2023-02-10T10:45:46;102147.56;;;5.56;100.00
5574;BME280;2563;52.242;7.956;2023-02-10T10:48:18;102173.53;;;5.76;100.00
5574;BME280;2563;52.242;7.956;2023-02-10T10:50:46;102206.81;;;5.79;100.00
5574;BME280;2563;52.242;7.956;2023-02-10T10:53:15;102225.19;;;5.99;100.00
5574;BME280;2563;52.242;7.956;2023-02-10T10:55:50;102232.66;;;6.31;100.00
5574;BME280;2563;52.242;7.956;2023-02-10T10:58:36;102252.28;;;6.32;100.00
5574;BME280;2563;52.242;7.956;2023-02-10T11:01:02;102283.25;;;6.46;100.00
5574;BME280;2563;52.242;7.956;2023-02-10T11:03:29;102352.25;;;6.05;100.00
5574;BME280;2563;52.242;7.956;2023-02-10T11:06:03;102299.22;;;5.94;100.00
5574;BME280;2563;52.242;7.956;2023-02-10T11:08:39;102358.47;;;5.81;100.00
5574;BME280;2563;52.242;7.956;2023-02-10T11:11:09;102351.03;;;6.25;100.00
5574;BME280;2563;52.242;7.956;2023-02-10T11:13:37;102364.09;;;6.77;100.00
5574;BME280;2563;52.242;7.956;2023-02-10T11:16:12;102396.53;;;7.19;100.00
5574;BME280;2563;52.242;7.956;2023-02-10T11:18:51;102401.44;;;7.54;100.00
5574;BME280;2563;52.242;7.956;2023-02-10T11:21:17;102411.69;;;8.04;100.00
5574;BME280;2563;52.242;7.956;2023-02-10T11:23:51;102280.09;;;8.05;100.00
5574;BME280;2563;52.242;7.956;2023-02-10T11:26:22;102331.50;;;8.14;100.00
5574;BME280;2563;52.242;7.956;2023-02-10T11:28:48;102403.03;;;7.97;100.00
5574;BME280;2563;52.242;7.956;2023-02-10T11:31:32;102401.31;;;8.49;100.00
5574;BME280;2563;52.242;7.956;2023-02-10T11:34:14;102429.72;;;8.60;100.00
5574;BME280;2563;52.242;7.956;2023-02-10T11:36:43;102434.59;;;8.45;100.00
5574;BME280;2563;52.242;7.956;2023-02-10T11:39:20;102401.09;;;8.37;100.00
5574;BME280;2563;52.242;7.956;2023-02-10T11:41:48;102377.28;;;8.44;100.00
5574;BME280;2563;52.242;7.956;2023-02-10T11:44:30;102385.28;;;8.64;100.00
5574;BME280;2563;52.242;7.956;2023-02-10T11:46:59;102379.28;;;8.65;100.00
5574;BME280;2563;52.242;7.956;2023-02-10T11:49:25;102358.38;;;9.03;100.00
5574;BME280;2563;52.242;7.956;2023-02-10T11:51:56;102361.47;;;8.78;100.00
5574;BME280;2563;52.242;7.956;2023-02-10T11:54:24;102381.81;;;8.62;100.00
5574;BME280;2563;52.242;7.956;2023-02-10T11:57:05;102371.09;;;8.31;100.00
5574;BME280;2563;52.242;7.956;2023-02-10T12:08:42;102174.91;;;8.80;100.00
5574;BME280;2563;52.242;7.956;2023-02-10T12:23:50;102032.44;;;9.66;100.00
5574;BME280;2563;52.242;7.956;2023-02-10T12:26:32;102007.63;;;9.82;100.00
5574;BME280;2563;52.242;7.956;2023-02-10T12:39:22;101923.63;;;9.99;100.00
5574;BME280;2563;52.242;7.956;2023-02-10T12:45:19;101913.31;;;9.81;100.00
5574;BME280;2563;52.242;7.956;2023-02-10T12:53:16;101916.78;;;10.09;100.00
5574;BME280;2563;52.242;7.956;2023-02-10T12:58:28;101910.72;;;9.56;100.00
5574;BME280;2563;52.242;7.956;2023-02-10T13:01:22;101916.78;;;9.80;100.00
5574;BME280;2563;52.242;7.956;2023-02-10T13:03:50;101913.31;;;9.63;100.00
5574;BME280;2563;52.242;7.956;2023-02-10T13:06:32;101920.84;;;9.07;100.00
5574;BME280;2563;52.242;7.956;2023-02-10T13:09:10;101931.94;;;9.00;100.00
5574;BME280;2563;52.242;7.956;2023-02-10T13:12:06;101920.59;;;8.54;100.00
5574;BME280;2563;52.242;7.956;2023-02-10T13:14:37;101911.53;;;7.95;100.00
5574;BME280;2563;52.242;7.956;2023-02-10T13:17:05;101919.81;;;7.64;100.00
5574;BME280;2563;52.242;7.956;2023-02-10T13:22:17;101917.69;;;8.12;100.00
5574;BME280;2563;52.242;7.956;2023-02-10T13:25:07;101904.13;;;8.27;100.00
5574;BME280;2563;52.242;7.956;2023-02-10T13:31:15;101907.38;;;8.09;100.00
5574;BME280;2563;52.242;7.956;2023-02-10T13:35:59;101914.41;;;8.31;100.00
5574;BME280;2563;52.242;7.956;2023-02-10T13:38:24;101921.22;;;8.28;100.00
5574;BME280;2563;52.242;7.956;2023-02-10T13:40:56;101919.41;;;8.16;100.00
5574;BME280;2563;52.242;7.956;2023-02-10T13:43:43;101924.44;;;8.04;100.00
5574;BME280;2563;52.242;7.956;2023-02-10T13:46:36;101914.78;;;7.74;100.00
5574;BME280;2563;52.242;7.956;2023-02-10T13:49:02;101925.19;;;7.91;100.00
5574;BME280;2563;52.242;7.956;2023-02-10T13:51:34;101921.81;;;7.96;100.00
5574;BME280;2563;52.242;7.956;2023-02-10T13:54:00;101914.13;;;7.96;100.00
5574;BME280;2563;52.242;7.956;2023-02-10T13:56:29;101929.56;;;8.04;100.00
5574;BME280;2563;52.242;7.956;2023-02-10T14:01:48;101925.88;;;7.71;100.00
5574;BME280;2563;52.242;7.956;2023-02-10T14:06:45;101933.88;;;8.05;100.00
5574;BME280;2563;52.242;7.956;2023-02-10T14:11:56;101918.28;;;7.85;100.00
5574;BME280;2563;52.242;7.956;2023-02-10T14:14:37;101921.69;;;7.82;100.00
5574;BME280;2563;52.242;7.956;2023-02-10T14:17:19;101921.78;;;7.92;100.00
5574;BME280;2563;52.242;7.956;2023-02-10T14:19:47;101933.88;;;8.05;100.00
5574;BME280;2563;52.242;7.956;2023-02-10T14:24:52;101926.84;;;7.84;100.00
5574;BME280;2563;52.242;7.956;2023-02-10T14:27:21;101931.94;;;7.81;100.00
5574;BME280;2563;52.242;7.956;2023-02-10T14:29:52;101934.47;;;7.76;100.00
5574;BME280;2563;52.242;7.956;2023-02-10T14:32:17;101927.50;;;7.66;100.00
5574;BME280;2563;52.242;7.956;2023-02-10T14:34:59;101930.91;;;7.62;100.00
5574;BME280;2563;52.242;7.956;2023-02-10T14:37:25;101926.47;;;7.49;100.00
5574;BME280;2563;52.242;7.956;2023-02-10T14:40:01;101923.78;;;7.36;100.00
5574;BME280;2563;52.242;7.956;2023-02-10T14:42:29;101920.34;;;7.34;100.00
5574;BME280;2563;52.242;7.956;2023-02-10T14:45:00;101918.63;;;7.32;100.00
5574;BME280;2563;52.242;7.956;2023-02-10T14:47:33;101918.59;;;7.29;100.00
5574;BME280;2563;52.242;7.956;2023-02-10T14:49:59;101916.72;;;7.14;100.00
5574;BME280;2563;52.242;7.956;2023-02-10T14:52:32;101913.03;;;6.93;100.00
5574;BME280;2563;52.242;7.956;2023-02-10T14:54:58;101916.28;;;6.80;100.00
5574;BME280;2563;52.242;7.956;2023-02-10T14:57:25;101906.81;;;6.74;100.00
5574;BME280;2563;52.242;7.956;2023-02-10T14:59:56;101910.97;;;6.66;100.00
5574;BME280;2563;52.242;7.956;2023-02-10T15:02:28;101915.25;;;6.67;100.00